sensor_id;sensor_type;location;lat;lon;timestamp;P1;durP1;ratioP1;P2;durP2;ratioP2
26050;SDS011;13825;53.496;10.020;2023-06-22T06:17:32;5.63;;;3.40;;
26050;SDS011;13825;53.496;10.020;2023-06-22T07:29:34;4.23;;;2.47;;
26050;SDS011;13825;53.496;10.020;2023-06-22T07:32:02;3.17;;;2.57;;
26050;SDS011;13825;53.496;10.020;2023-06-22T07:38:13;5.00;;;3.10;;
26050;SDS011;13825;53.496;10.020;2023-06-22T11:02:58;3.70;;;2.80;;
26050;SDS011;13825;53.496;10.020;2023-06-22T11:06:14;2.67;;;2.47;;
26050;SDS011;13825;53.496;10.020;2023-06-22T11:09:28;3.93;;;3.43;;
26050;SDS011;13825;53.496;10.020;2023-06-22T11:22:16;4.60;;;3.17;;
26050;SDS011;13825;53.496;10.020;2023-06-22T11:25:01;4.03;;;3.03;;
26050;SDS011;13825;53.496;10.020;2023-06-22T11:27:48;4.20;;;3.13;;
26050;SDS011;13825;53.496;10.020;2023-06-22T11:30:26;6.43;;;2.80;;
26050;SDS011;13825;53.496;10.020;2023-06-22T13:18:41;5.27;;;4.37;;
26050;SDS011;13825;53.496;10.020;2023-06-22T13:21:13;5.37;;;3.80;;
26050;SDS011;13825;53.496;10.020;2023-06-22T13:23:40;4.33;;;3.93;;
26050;SDS011;13825;53.496;10.020;2023-06-22T13:26:07;4.97;;;4.10;;
26050;SDS011;13825;53.496;10.020;2023-06-22T13:28:36;5.50;;;4.20;;
26050;SDS011;13825;53.496;10.020;2023-06-22T13:31:05;4.70;;;3.60;;
26050;SDS011;13825;53.496;10.020;2023-06-22T13:33:32;6.17;;;4.37;;
26050;SDS011;13825;53.496;10.020;2023-06-22T13:36:03;4.17;;;3.77;;
26050;SDS011;13825;53.496;10.020;2023-06-22T13:38:31;4.50;;;4.00;;
26050;SDS011;13825;53.496;10.020;2023-06-22T13:41:10;5.03;;;3.90;;
26050;SDS011;13825;53.496;10.020;2023-06-22T13:43:37;4.70;;;3.97;;
26050;SDS011;13825;53.496;10.020;2023-06-22T13:46:06;4.70;;;4.00;;
26050;SDS011;13825;53.496;10.020;2023-06-22T13:48:40;4.50;;;4.10;;
26050;SDS011;13825;53.496;10.020;2023-06-22T13:51:15;5.80;;;4.00;;
26050;SDS011;13825;53.496;10.020;2023-06-22T13:53:42;6.37;;;3.97;;
26050;SDS011;13825;53.496;10.020;2023-06-22T13:56:09;4.87;;;3.93;;
26050;SDS011;13825;53.496;10.020;2023-06-22T13:58:36;4.67;;;3.53;;
26050;SDS011;13825;53.496;10.020;2023-06-22T14:01:03;5.77;;;3.57;;
26050;SDS011;13825;53.496;10.020;2023-06-22T14:06:30;4.57;;;4.17;;
26050;SDS011;13825;53.496;10.020;2023-06-22T14:08:57;6.03;;;3.87;;
26050;SDS011;13825;53.496;10.020;2023-06-22T14:11:27;4.70;;;4.20;;
26050;SDS011;13825;53.496;10.020;2023-06-22T14:13:57;4.40;;;3.57;;
26050;SDS011;13825;53.496;10.020;2023-06-22T14:16:24;3.77;;;3.47;;
26050;SDS011;13825;53.496;10.020;2023-06-22T14:18:51;7.00;;;3.90;;
26050;SDS011;13825;53.496;10.020;2023-06-22T14:21:19;4.27;;;3.63;;
26050;SDS011;13825;53.496;10.020;2023-06-22T14:23:47;4.53;;;4.10;;
26050;SDS011;13825;53.496;10.020;2023-06-22T14:26:15;4.50;;;4.10;;
26050;SDS011;13825;53.496;10.020;2023-06-22T14:28:43;5.20;;;4.70;;
26050;SDS011;13825;53.496;10.020;2023-06-22T14:31:13;4.93;;;4.40;;
26050;SDS011;13825;53.496;10.020;2023-06-22T14:33:45;5.63;;;4.20;;
26050;SDS011;13825;53.496;10.020;2023-06-22T14:36:24;5.13;;;4.50;;
26050;SDS011;13825;53.496;10.020;2023-06-22T14:38:55;5.70;;;4.60;;
26050;SDS011;13825;53.496;10.020;2023-06-22T14:41:25;4.50;;;4.10;;
26050;SDS011;13825;53.496;10.020;2023-06-22T14:43:58;5.53;;;4.03;;
26050;SDS011;13825;53.496;10.020;2023-06-22T14:46:26;5.47;;;4.23;;
26050;SDS011;13825;53.496;10.020;2023-06-22T14:48:53;4.80;;;4.30;;
26050;SDS011;13825;53.496;10.020;2023-06-22T14:51:20;7.30;;;4.20;;
26050;SDS011;13825;53.496;10.020;2023-06-22T14:53:56;5.03;;;4.53;;
26050;SDS011;13825;53.496;10.020;2023-06-22T14:56:23;4.30;;;3.90;;
26050;SDS011;13825;53.496;10.020;2023-06-22T14:58:50;5.23;;;4.40;;
26050;SDS011;13825;53.496;10.020;2023-06-22T15:01:17;5.63;;;4.20;;
26050;SDS011;13825;53.496;10.020;2023-06-22T15:03:44;5.00;;;4.37;;
26050;SDS011;13825;53.496;10.020;2023-06-22T15:06:13;4.97;;;4.00;;
26050;SDS011;13825;53.496;10.020;2023-06-22T15:08:42;6.10;;;4.23;;
26050;SDS011;13825;53.496;10.020;2023-06-22T15:11:14;4.90;;;4.07;;
26050;SDS011;13825;53.496;10.020;2023-06-22T15:13:43;5.40;;;4.27;;
26050;SDS011;13825;53.496;10.020;2023-06-22T15:16:13;5.30;;;4.27;;
26050;SDS011;13825;53.496;10.020;2023-06-22T15:18:43;4.33;;;3.87;;
26050;SDS011;13825;53.496;10.020;2023-06-22T15:21:17;5.17;;;4.13;;
26050;SDS011;13825;53.496;10.020;2023-06-22T15:23:47;5.80;;;3.50;;
26050;SDS011;13825;53.496;10.020;2023-06-22T15:26:16;4.57;;;3.77;;
26050;SDS011;13825;53.496;10.020;2023-06-22T15:28:46;4.37;;;3.90;;
26050;SDS011;13825;53.496;10.020;2023-06-22T15:31:16;4.53;;;4.13;;
26050;SDS011;13825;53.496;10.020;2023-06-22T15:33:45;5.30;;;4.37;;
26050;SDS011;13825;53.496;10.020;2023-06-22T15:36:12;5.53;;;4.30;;
26050;SDS011;13825;53.496;10.020;2023-06-22T15:38:45;6.03;;;4.37;;
26050;SDS011;13825;53.496;10.020;2023-06-22T15:41:22;4.33;;;3.77;;
26050;SDS011;13825;53.496;10.020;2023-06-22T15:44:06;4.33;;;3.90;;
26050;SDS011;13825;53.496;10.020;2023-06-22T15:46:34;4.67;;;3.70;;
26050;SDS011;13825;53.496;10.020;2023-06-22T15:49:04;4.37;;;3.97;;
26050;SDS011;13825;53.496;10.020;2023-06-22T15:54:23;4.30;;;3.83;;
26050;SDS011;13825;53.496;10.020;2023-06-22T15:56:57;4.33;;;3.67;;
26050;SDS011;13825;53.496;10.020;2023-06-22T15:59:24;4.87;;;4.00;;
26050;SDS011;13825;53.496;10.020;2023-06-22T16:01:51;6.13;;;3.70;;
26050;SDS011;13825;53.496;10.020;2023-06-22T16:04:20;4.90;;;4.13;;
26050;SDS011;13825;53.496;10.020;2023-06-22T16:06:51;4.37;;;3.70;;
26050;SDS011;13825;53.496;10.020;2023-06-22T16:09:17;3.67;;;3.37;;
26050;SDS011;13825;53.496;10.020;2023-06-22T16:11:46;3.97;;;3.60;;
26050;SDS011;13825;53.496;10.020;2023-06-22T16:14:16;5.70;;;4.03;;
26050;SDS011;13825;53.496;10.020;2023-06-22T16:16:44;3.53;;;3.23;;
26050;SDS011;13825;53.496;10.020;2023-06-22T16:19:14;5.63;;;3.80;;
26050;SDS011;13825;53.496;10.020;2023-06-22T16:24:46;4.20;;;3.70;;
26050;SDS011;13825;53.496;10.020;2023-06-22T16:27:28;3.20;;;2.90;;
26050;SDS011;13825;53.496;10.020;2023-06-22T16:30:01;3.67;;;3.17;;
26050;SDS011;13825;53.496;10.020;2023-06-22T16:32:28;3.57;;;3.27;;
26050;SDS011;13825;53.496;10.020;2023-06-22T16:34:55;3.57;;;3.20;;
26050;SDS011;13825;53.496;10.020;2023-06-22T16:37:22;5.30;;;3.23;;
26050;SDS011;13825;53.496;10.020;2023-06-22T16:39:49;4.60;;;3.37;;
26050;SDS011;13825;53.496;10.020;2023-06-22T16:42:16;3.43;;;3.10;;
26050;SDS011;13825;53.496;10.020;2023-06-22T16:44:43;4.00;;;2.80;;
26050;SDS011;13825;53.496;10.020;2023-06-22T16:47:12;4.00;;;3.07;;
26050;SDS011;13825;53.496;10.020;2023-06-22T16:49:39;4.20;;;3.20;;
26050;SDS011;13825;53.496;10.020;2023-06-22T16:52:09;4.20;;;2.87;;
26050;SDS011;13825;53.496;10.020;2023-06-22T16:54:36;3.03;;;2.73;;
26050;SDS011;13825;53.496;10.020;2023-06-22T16:57:14;3.17;;;2.83;;
26050;SDS011;13825;53.496;10.020;2023-06-22T16:59:44;4.03;;;2.70;;
26050;SDS011;13825;53.496;10.020;2023-06-22T17:02:17;3.57;;;3.20;;
26050;SDS011;13825;53.496;10.020;2023-06-22T17:04:57;3.90;;;3.10;;
26050;SDS011;13825;53.496;10.020;2023-06-22T17:07:51;4.83;;;2.50;;
26050;SDS011;13825;53.496;10.020;2023-06-22T17:10:36;8.57;;;2.60;;
26050;SDS011;13825;53.496;10.020;2023-06-22T17:13:11;5.23;;;3.00;;
26050;SDS011;13825;53.496;10.020;2023-06-22T17:15:56;5.30;;;2.80;;
26050;SDS011;13825;53.496;10.020;2023-06-22T17:18:40;3.83;;;2.63;;
26050;SDS011;13825;53.496;10.020;2023-06-22T17:21:20;4.87;;;3.03;;
26050;SDS011;13825;53.496;10.020;2023-06-22T17:23:48;4.03;;;2.50;;
26050;SDS011;13825;53.496;10.020;2023-06-22T17:26:16;3.57;;;2.63;;
26050;SDS011;13825;53.496;10.020;2023-06-22T17:28:46;3.63;;;2.90;;
26050;SDS011;13825;53.496;10.020;2023-06-22T17:34:40;2.83;;;2.60;;
26050;SDS011;13825;53.496;10.020;2023-06-22T17:37:07;3.97;;;2.80;;
26050;SDS011;13825;53.496;10.020;2023-06-22T17:39:35;3.00;;;2.63;;
26050;SDS011;13825;53.496;10.020;2023-06-22T17:42:05;3.97;;;2.90;;
26050;SDS011;13825;53.496;10.020;2023-06-22T17:44:36;4.07;;;2.80;;
26050;SDS011;13825;53.496;10.020;2023-06-22T17:47:05;4.87;;;3.07;;
26050;SDS011;13825;53.496;10.020;2023-06-22T17:49:32;4.90;;;2.50;;
26050;SDS011;13825;53.496;10.020;2023-06-22T17:52:04;5.83;;;2.87;;
26050;SDS011;13825;53.496;10.020;2023-06-22T17:54:42;4.40;;;2.80;;
26050;SDS011;13825;53.496;10.020;2023-06-22T17:57:17;3.40;;;2.83;;
26050;SDS011;13825;53.496;10.020;2023-06-22T17:59:49;3.60;;;2.80;;
26050;SDS011;13825;53.496;10.020;2023-06-22T18:02:19;3.03;;;2.73;;
26050;SDS011;13825;53.496;10.020;2023-06-22T18:04:56;5.03;;;2.63;;
26050;SDS011;13825;53.496;10.020;2023-06-22T18:07:32;3.00;;;2.70;;
26050;SDS011;13825;53.496;10.020;2023-06-22T18:10:05;5.37;;;2.63;;
26050;SDS011;13825;53.496;10.020;2023-06-22T18:12:36;3.43;;;3.07;;
26050;SDS011;13825;53.496;10.020;2023-06-22T18:15:07;3.20;;;2.47;;
26050;SDS011;13825;53.496;10.020;2023-06-22T18:17:38;3.70;;;2.90;;
26050;SDS011;13825;53.496;10.020;2023-06-22T18:20:07;3.47;;;2.67;;
26050;SDS011;13825;53.496;10.020;2023-06-22T18:22:37;3.37;;;2.57;;
26050;SDS011;13825;53.496;10.020;2023-06-22T18:25:07;2.93;;;2.50;;
26050;SDS011;13825;53.496;10.020;2023-06-22T18:27:36;3.60;;;2.73;;
26050;SDS011;13825;53.496;10.020;2023-06-22T18:30:04;3.27;;;2.53;;
26050;SDS011;13825;53.496;10.020;2023-06-22T18:32:31;2.40;;;2.20;;
26050;SDS011;13825;53.496;10.020;2023-06-22T18:34:58;2.70;;;2.50;;
26050;SDS011;13825;53.496;10.020;2023-06-22T18:37:25;3.13;;;2.40;;
26050;SDS011;13825;53.496;10.020;2023-06-22T19:44:29;2.53;;;1.90;;
26050;SDS011;13825;53.496;10.020;2023-06-22T19:49:37;2.50;;;1.63;;
26050;SDS011;13825;53.496;10.020;2023-06-22T19:52:07;2.67;;;1.67;;
26050;SDS011;13825;53.496;10.020;2023-06-22T20:11:24;1.50;;;1.40;;
26050;SDS011;13825;53.496;10.020;2023-06-22T20:13:54;1.97;;;1.50;;
26050;SDS011;13825;53.496;10.020;2023-06-22T20:16:22;1.77;;;1.50;;
26050;SDS011;13825;53.496;10.020;2023-06-22T20:19:03;2.17;;;1.63;;
26050;SDS011;13825;53.496;10.020;2023-06-22T20:21:36;2.07;;;1.87;;
26050;SDS011;13825;53.496;10.020;2023-06-22T20:24:15;3.70;;;2.13;;
26050;SDS011;13825;53.496;10.020;2023-06-22T20:26:45;4.17;;;2.20;;
26050;SDS011;13825;53.496;10.020;2023-06-22T20:29:22;4.43;;;2.37;;
26050;SDS011;13825;53.496;10.020;2023-06-22T20:32:01;2.90;;;2.00;;
26050;SDS011;13825;53.496;10.020;2023-06-22T20:34:34;3.70;;;2.43;;
26050;SDS011;13825;53.496;10.020;2023-06-22T20:37:03;4.00;;;2.40;;
26050;SDS011;13825;53.496;10.020;2023-06-22T20:39:33;3.50;;;2.53;;
26050;SDS011;13825;53.496;10.020;2023-06-22T20:42:01;3.67;;;2.67;;
26050;SDS011;13825;53.496;10.020;2023-06-22T20:44:29;5.50;;;3.20;;
26050;SDS011;13825;53.496;10.020;2023-06-22T20:46:57;5.77;;;3.40;;
26050;SDS011;13825;53.496;10.020;2023-06-22T20:52:17;4.80;;;3.10;;
26050;SDS011;13825;53.496;10.020;2023-06-22T20:54:45;5.67;;;3.60;;
26050;SDS011;13825;53.496;10.020;2023-06-22T20:57:12;4.77;;;2.70;;
26050;SDS011;13825;53.496;10.020;2023-06-22T20:59:40;3.87;;;2.50;;
26050;SDS011;13825;53.496;10.020;2023-06-22T21:02:09;3.23;;;2.20;;
26050;SDS011;13825;53.496;10.020;2023-06-22T21:04:36;3.30;;;2.73;;
26050;SDS011;13825;53.496;10.020;2023-06-22T21:07:04;3.93;;;2.80;;
26050;SDS011;13825;53.496;10.020;2023-06-22T21:09:31;3.73;;;2.63;;
26050;SDS011;13825;53.496;10.020;2023-06-22T21:12:00;5.00;;;2.87;;
26050;SDS011;13825;53.496;10.020;2023-06-22T21:14:27;4.27;;;2.83;;
26050;SDS011;13825;53.496;10.020;2023-06-22T21:16:59;3.63;;;2.80;;
26050;SDS011;13825;53.496;10.020;2023-06-22T21:19:26;6.00;;;2.83;;
26050;SDS011;13825;53.496;10.020;2023-06-22T21:21:59;5.07;;;2.50;;
26050;SDS011;13825;53.496;10.020;2023-06-22T21:24:34;4.50;;;2.73;;
26050;SDS011;13825;53.496;10.020;2023-06-22T21:29:38;4.40;;;2.97;;
26050;SDS011;13825;53.496;10.020;2023-06-22T21:32:07;2.57;;;2.37;;
26050;SDS011;13825;53.496;10.020;2023-06-22T21:34:38;3.93;;;2.87;;
26050;SDS011;13825;53.496;10.020;2023-06-22T21:37:05;4.97;;;3.20;;
26050;SDS011;13825;53.496;10.020;2023-06-22T21:39:32;4.27;;;2.77;;
26050;SDS011;13825;53.496;10.020;2023-06-22T21:42:00;4.20;;;2.70;;
26050;SDS011;13825;53.496;10.020;2023-06-22T21:44:27;3.57;;;2.70;;
26050;SDS011;13825;53.496;10.020;2023-06-22T21:46:56;6.30;;;3.07;;
26050;SDS011;13825;53.496;10.020;2023-06-22T21:49:24;5.60;;;2.80;;
26050;SDS011;13825;53.496;10.020;2023-06-22T21:51:54;3.73;;;2.93;;
26050;SDS011;13825;53.496;10.020;2023-06-22T21:54:22;4.60;;;2.80;;
26050;SDS011;13825;53.496;10.020;2023-06-22T21:56:49;3.60;;;2.63;;
26050;SDS011;13825;53.496;10.020;2023-06-22T21:59:16;4.97;;;3.13;;
26050;SDS011;13825;53.496;10.020;2023-06-22T22:01:43;4.27;;;3.17;;
26050;SDS011;13825;53.496;10.020;2023-06-22T22:04:11;3.93;;;2.93;;
26050;SDS011;13825;53.496;10.020;2023-06-22T22:06:47;4.73;;;3.33;;
26050;SDS011;13825;53.496;10.020;2023-06-22T22:09:16;5.07;;;3.53;;
26050;SDS011;13825;53.496;10.020;2023-06-22T22:11:43;4.23;;;3.20;;
26050;SDS011;13825;53.496;10.020;2023-06-22T22:14:10;4.03;;;3.37;;
26050;SDS011;13825;53.496;10.020;2023-06-22T22:16:37;7.97;;;3.30;;
26050;SDS011;13825;53.496;10.020;2023-06-22T22:19:04;4.60;;;3.50;;
26050;SDS011;13825;53.496;10.020;2023-06-22T22:21:33;3.70;;;3.03;;
26050;SDS011;13825;53.496;10.020;2023-06-22T22:24:00;5.40;;;3.73;;
26050;SDS011;13825;53.496;10.020;2023-06-22T22:26:27;3.80;;;3.40;;
26050;SDS011;13825;53.496;10.020;2023-06-22T22:28:54;4.20;;;3.37;;
26050;SDS011;13825;53.496;10.020;2023-06-22T22:31:22;6.17;;;3.43;;
26050;SDS011;13825;53.496;10.020;2023-06-22T22:33:49;7.40;;;3.67;;
26050;SDS011;13825;53.496;10.020;2023-06-22T22:36:16;5.50;;;3.43;;
26050;SDS011;13825;53.496;10.020;2023-06-22T22:38:44;5.27;;;3.67;;
26050;SDS011;13825;53.496;10.020;2023-06-22T22:41:11;5.27;;;3.53;;
26050;SDS011;13825;53.496;10.020;2023-06-22T22:43:38;5.03;;;4.10;;
26050;SDS011;13825;53.496;10.020;2023-06-22T22:46:05;5.50;;;3.70;;
26050;SDS011;13825;53.496;10.020;2023-06-22T22:48:32;7.47;;;3.57;;
26050;SDS011;13825;53.496;10.020;2023-06-22T22:50:58;6.37;;;4.43;;
26050;SDS011;13825;53.496;10.020;2023-06-22T22:53:28;7.00;;;4.20;;
26050;SDS011;13825;53.496;10.020;2023-06-22T22:55:57;5.63;;;3.80;;
26050;SDS011;13825;53.496;10.020;2023-06-22T22:58:24;6.33;;;3.97;;
26050;SDS011;13825;53.496;10.020;2023-06-22T23:00:52;7.57;;;3.70;;
26050;SDS011;13825;53.496;10.020;2023-06-22T23:03:20;5.97;;;3.83;;
26050;SDS011;13825;53.496;10.020;2023-06-22T23:05:47;6.77;;;4.23;;
26050;SDS011;13825;53.496;10.020;2023-06-22T23:08:16;5.03;;;3.50;;
26050;SDS011;13825;53.496;10.020;2023-06-22T23:10:44;5.03;;;3.73;;
26050;SDS011;13825;53.496;10.020;2023-06-22T23:13:12;5.80;;;4.07;;
26050;SDS011;13825;53.496;10.020;2023-06-22T23:15:39;6.13;;;3.70;;
26050;SDS011;13825;53.496;10.020;2023-06-22T23:18:07;8.77;;;4.10;;
26050;SDS011;13825;53.496;10.020;2023-06-22T23:20:34;5.70;;;4.03;;
26050;SDS011;13825;53.496;10.020;2023-06-22T23:23:04;7.70;;;4.17;;
26050;SDS011;13825;53.496;10.020;2023-06-22T23:25:31;4.97;;;3.80;;
26050;SDS011;13825;53.496;10.020;2023-06-22T23:27:59;5.60;;;3.90;;
26050;SDS011;13825;53.496;10.020;2023-06-22T23:30:32;5.43;;;4.00;;
26050;SDS011;13825;53.496;10.020;2023-06-22T23:33:03;6.33;;;4.00;;
26050;SDS011;13825;53.496;10.020;2023-06-22T23:35:30;5.40;;;4.13;;
26050;SDS011;13825;53.496;10.020;2023-06-22T23:37:57;7.43;;;4.57;;
26050;SDS011;13825;53.496;10.020;2023-06-22T23:40:27;5.90;;;4.47;;
26050;SDS011;13825;53.496;10.020;2023-06-22T23:42:55;7.30;;;4.50;;
26050;SDS011;13825;53.496;10.020;2023-06-22T23:45:22;6.20;;;4.23;;
26050;SDS011;13825;53.496;10.020;2023-06-22T23:47:54;5.30;;;4.47;;
26050;SDS011;13825;53.496;10.020;2023-06-22T23:50:21;7.57;;;4.80;;
26050;SDS011;13825;53.496;10.020;2023-06-22T23:52:48;8.07;;;4.77;;
26050;SDS011;13825;53.496;10.020;2023-06-22T23:55:15;6.80;;;4.63;;
26050;SDS011;13825;53.496;10.020;2023-06-22T23:57:43;6.60;;;4.13;;
